Arcola, Virginia
Current Conditions -  °F | °C
As of 2:52 AM on Wednesday 26 Nov 2014 (Local Time) from KIAD Reporting Station
Light Rain Light Rain  
Wind Chill: 39°   Ceiling: 5000
Heat Index: 42°   Visibility: 9mi
Dew Point: 39°   Wind: 5mph
Humidity: 89%   Direction: 320°NW
Pressure: 30.12"   Gusts: NA
Location:  38.95°N, 77.53°W
Report Text: KIAD 260752Z 32004KT 9SM -RA BKN050 OVC075 06/04 A3012 RMK AO2 RAB16 SLP198 P0000 T00560039
Loading
Personal Weather Stations






























Interactive Weather Map New forecast layout! Learn more

10-Day Weather Forecast

Advertisements
Track Severe Weather on mobile